Time;durP1;ratioP1;P1;durP2;ratioP2;P2;SDS_P1;SDS_P2;PMS_P1;PMS_P2;Temp;Humidity;BMP_temperature;BMP_pressure;BME280_temperature;BME280_humidity;BME280_pressure;Samples;Min_cycle;Max_cycle;Signal;HPM_P1;HPM_P2
2022/07/01 00:02:26;;;;;;;6.27;4.43;;;;;;;;;;4874778;29;20096;-73
2022/07/01 00:05:07;;;;;;;10.70;5.25;;;;;;;;;;4874803;29;20762;-72
2022/07/01 00:07:50;;;;;;;7.40;4.63;;;;;;;;;;4874916;29;20421;-72
2022/07/01 00:10:28;;;;;;;8.25;5.90;;;;;;;;;;4874280;29;20057;-73
2022/07/01 00:12:59;;;;;;;9.20;5.00;;;;;;;;;;4873232;29;20064;-73
2022/07/01 00:15:29;;;;;;;11.50;6.53;;;;;;;;;;4874630;29;20138;-73
2022/07/01 00:18:03;;;;;;;11.25;6.25;;;;;;;;;;4874317;29;20055;-73
2022/07/01 00:20:36;;;;;;;16.60;6.07;;;;;;;;;;4874185;29;20059;-73
2022/07/01 00:23:18;;;;;;;20.13;5.47;;;;;;;;;;4874195;29;20048;-72
2022/07/01 00:25:53;;;;;;;8.35;6.90;;;;;;;;;;4874139;29;20053;-74
2022/07/01 00:28:29;;;;;;;14.65;6.93;;;;;;;;;;4873975;29;20436;-73
2022/07/01 00:30:59;;;;;;;14.27;6.47;;;;;;;;;;4873681;29;20057;-74
2022/07/01 00:33:42;;;;;;;20.02;8.27;;;;;;;;;;4874337;29;20394;-72
2022/07/01 00:36:16;;;;;;;13.88;9.15;;;;;;;;;;4874524;29;20572;-73
2022/07/01 00:39:00;;;;;;;15.13;10.48;;;;;;;;;;4873999;29;20064;-73
2022/07/01 00:41:45;;;;;;;22.55;14.52;;;;;;;;;;4873918;29;20063;-73
2022/07/01 00:44:29;;;;;;;22.17;17.45;;;;;;;;;;4873333;29;20071;-73
2022/07/01 00:47:11;;;;;;;27.98;18.50;;;;;;;;;;4874038;29;20059;-72
2022/07/01 00:49:44;;;;;;;18.00;10.57;;;;;;;;;;4873581;29;20053;-73
2022/07/01 00:52:17;;;;;;;14.27;8.88;;;;;;;;;;4873970;29;20056;-72
2022/07/01 00:55:02;;;;;;;11.50;7.20;;;;;;;;;;4873827;29;20061;-73
2022/07/01 00:57:43;;;;;;;11.52;8.05;;;;;;;;;;4873674;29;20064;-74
2022/07/01 01:00:22;;;;;;;12.80;8.87;;;;;;;;;;4873583;29;20049;-72
2022/07/01 01:02:57;;;;;;;14.57;9.60;;;;;;;;;;4873583;29;20300;-73
2022/07/01 01:05:30;;;;;;;13.10;9.65;;;;;;;;;;4873867;29;20064;-74
2022/07/01 01:08:00;;;;;;;15.82;9.55;;;;;;;;;;4873262;29;20508;-73
2022/07/01 01:10:45;;;;;;;19.42;8.35;;;;;;;;;;4873285;29;20056;-73
2022/07/01 01:13:19;;;;;;;10.65;8.52;;;;;;;;;;4873143;29;20425;-72
2022/07/01 01:15:52;;;;;;;14.82;9.90;;;;;;;;;;4874144;29;20057;-71
2022/07/01 01:18:25;;;;;;;12.63;9.32;;;;;;;;;;4873539;29;20060;-72
2022/07/01 01:20:59;;;;;;;13.02;8.98;;;;;;;;;;4873766;29;20544;-71
2022/07/01 01:23:32;;;;;;;7.75;6.22;;;;;;;;;;4873199;29;20513;-72
2022/07/01 01:26:19;;;;;;;9.88;5.82;;;;;;;;;;4871497;29;20500;-72
2022/07/01 01:28:50;;;;;;;10.90;6.60;;;;;;;;;;4873388;29;20426;-72
2022/07/01 01:31:30;;;;;;;7.38;5.80;;;;;;;;;;4872521;29;20054;-72
2022/07/01 01:34:12;;;;;;;20.00;6.65;;;;;;;;;;4872570;29;20076;-72
2022/07/01 01:36:58;;;;;;;10.40;5.60;;;;;;;;;;4873569;29;20416;-71
2022/07/01 01:39:28;;;;;;;8.35;6.00;;;;;;;;;;4873294;29;20056;-72
2022/07/01 01:41:58;;;;;;;6.63;5.82;;;;;;;;;;4873038;29;20071;-71
2022/07/01 01:44:30;;;;;;;8.88;6.90;;;;;;;;;;4871782;29;20454;-73
2022/07/01 01:47:01;;;;;;;8.85;7.03;;;;;;;;;;4873249;29;20040;-73
2022/07/01 01:49:31;;;;;;;9.93;6.57;;;;;;;;;;4873564;29;20064;-74
2022/07/01 01:52:03;;;;;;;9.52;6.25;;;;;;;;;;4873332;29;20063;-74
2022/07/01 01:54:36;;;;;;;6.10;5.18;;;;;;;;;;4873054;29;20056;-74
2022/07/01 01:57:09;;;;;;;8.32;5.00;;;;;;;;;;4872696;29;20049;-73
2022/07/01 01:59:42;;;;;;;6.80;5.18;;;;;;;;;;4873198;29;20056;-74
2022/07/01 02:02:15;;;;;;;5.50;4.60;;;;;;;;;;4873200;29;20488;-73
2022/07/01 02:04:45;;;;;;;10.23;5.30;;;;;;;;;;4873378;29;20045;-73
2022/07/01 02:07:15;;;;;;;9.18;5.20;;;;;;;;;;4872991;29;20053;-72
2022/07/01 02:09:44;;;;;;;4.82;4.43;;;;;;;;;;4872626;29;20417;-72
2022/07/01 02:12:14;;;;;;;6.97;4.43;;;;;;;;;;4873164;29;20052;-72
2022/07/01 02:14:47;;;;;;;5.05;4.45;;;;;;;;;;4872982;29;20053;-73
2022/07/01 02:17:20;;;;;;;6.82;4.82;;;;;;;;;;4872852;29;20061;-72
2022/07/01 02:19:53;;;;;;;7.43;4.60;;;;;;;;;;4873034;29;20057;-72
2022/07/01 02:22:23;;;;;;;8.75;5.53;;;;;;;;;;4872738;29;20409;-72
2022/07/01 02:24:56;;;;;;;15.60;8.98;;;;;;;;;;4872565;29;20061;-72
2022/07/01 02:27:26;;;;;;;9.23;6.88;;;;;;;;;;4873056;29;20052;-73
2022/07/01 02:30:05;;;;;;;14.05;7.93;;;;;;;;;;4873065;29;20412;-72
2022/07/01 02:32:36;;;;;;;10.50;7.50;;;;;;;;;;4872337;29;20525;-72
2022/07/01 02:35:06;;;;;;;11.93;7.55;;;;;;;;;;4873199;29;20064;-72
2022/07/01 02:37:39;;;;;;;12.82;7.72;;;;;;;;;;4872886;29;20060;-72
2022/07/01 02:40:10;;;;;;;12.38;9.23;;;;;;;;;;4872383;29;20052;-75
2022/07/01 02:42:40;;;;;;;15.18;10.38;;;;;;;;;;4872231;29;20420;-72
2022/07/01 02:45:10;;;;;;;24.90;9.10;;;;;;;;;;4872652;29;20061;-72
2022/07/01 02:47:41;;;;;;;11.77;7.38;;;;;;;;;;4872335;29;20064;-72
2022/07/01 02:50:13;;;;;;;9.02;7.85;;;;;;;;;;4871016;29;20090;-73
2022/07/01 02:52:49;;;;;;;8.18;7.30;;;;;;;;;;4872969;29;20535;-72
2022/07/01 02:55:19;;;;;;;12.68;8.52;;;;;;;;;;4875716;29;20428;-71
2022/07/01 02:57:51;;;;;;;9.50;6.82;;;;;;;;;;4876367;29;20075;-72
2022/07/01 03:00:22;;;;;;;7.72;6.57;;;;;;;;;;4874748;29;20512;-72
2022/07/01 03:02:52;;;;;;;7.38;5.82;;;;;;;;;;4875853;29;20052;-73
2022/07/01 03:05:22;;;;;;;13.10;7.07;;;;;;;;;;4875578;29;20060;-73
2022/07/01 03:07:52;;;;;;;9.68;5.85;;;;;;;;;;4875672;29;20060;-72
2022/07/01 03:10:22;;;;;;;8.57;6.07;;;;;;;;;;4875894;29;20061;-72
2022/07/01 03:12:52;;;;;;;6.72;5.90;;;;;;;;;;4875957;29;20083;-72
2022/07/01 03:15:21;;;;;;;7.63;5.88;;;;;;;;;;4875885;29;20075;-72
2022/07/01 03:17:51;;;;;;;9.85;5.78;;;;;;;;;;4875612;29;20053;-72
2022/07/01 03:20:21;;;;;;;10.05;5.90;;;;;;;;;;4875952;29;20049;-72
2022/07/01 03:22:51;;;;;;;9.48;5.65;;;;;;;;;;4875210;29;20049;-72
2022/07/01 03:25:21;;;;;;;7.13;5.82;;;;;;;;;;4874982;29;20060;-72
2022/07/01 03:27:51;;;;;;;7.07;6.35;;;;;;;;;;4875297;29;20505;-72
2022/07/01 03:30:20;;;;;;;9.10;6.90;;;;;;;;;;4875337;29;20061;-72
2022/07/01 03:32:50;;;;;;;7.22;6.50;;;;;;;;;;4874771;29;20048;-72
2022/07/01 03:38:08;;;;;;;10.85;6.68;;;;;;;;;;4875848;29;20052;-72
2022/07/01 03:40:39;;;;;;;7.47;6.47;;;;;;;;;;4874963;29;20060;-72
2022/07/01 03:43:09;;;;;;;;;;;;;;;;;;4874525;29;20045;-72
2022/07/01 03:45:39;;;;;;;6.03;5.30;;;;;;;;;;4873607;29;19939;-72
2022/07/01 03:48:10;;;;;;;8.57;6.47;;;;;;;;;;4875160;29;20045;-72
2022/07/01 03:50:40;;;;;;;6.35;5.68;;;;;;;;;;4875352;29;20213;-71
2022/07/01 03:55:59;;;;;;;9.70;7.15;;;;;;;;;;4875130;29;20049;-71
2022/07/01 03:58:29;;;;;;;9.10;8.10;;;;;;;;;;4874762;29;20532;-72
2022/07/01 04:00:58;;;;;;;12.60;7.88;;;;;;;;;;4874036;29;20056;-72
2022/07/01 04:03:28;;;;;;;12.15;8.60;;;;;;;;;;4874888;29;20049;-72
2022/07/01 04:05:58;;;;;;;13.00;8.95;;;;;;;;;;4873556;29;20053;-72
2022/07/01 04:08:29;;;;;;;11.13;8.80;;;;;;;;;;4874823;29;20063;-71
2022/07/01 04:10:59;;;;;;;12.93;7.47;;;;;;;;;;4874667;29;20417;-71
2022/07/01 04:13:29;;;;;;;10.57;7.22;;;;;;;;;;4874883;29;20060;-72
2022/07/01 04:16:00;;;;;;;9.48;7.13;;;;;;;;;;4874783;29;20533;-71
2022/07/01 04:18:31;;;;;;;7.50;6.60;;;;;;;;;;4874578;29;20061;-72
2022/07/01 04:23:50;;;;;;;11.25;7.25;;;;;;;;;;4874180;29;20060;-72
2022/07/01 04:26:20;;;;;;;9.20;7.30;;;;;;;;;;4874388;29;20076;-72
2022/07/01 04:29:10;;;;;;;8.00;6.05;;;;;;;;;;4874154;29;20060;-72
2022/07/01 04:31:41;;;;;;;10.93;6.57;;;;;;;;;;4874500;29;20131;-72
2022/07/01 04:34:11;;;;;;;9.20;7.23;;;;;;;;;;4874328;29;20508;-72
2022/07/01 04:36:41;;;;;;;8.25;6.60;;;;;;;;;;4874282;29;20053;-71
2022/07/01 04:39:10;;;;;;;8.13;6.30;;;;;;;;;;4874242;29;20049;-72
2022/07/01 04:42:01;;;;;;;10.50;6.22;;;;;;;;;;4873791;29;20060;-72
2022/07/01 04:44:33;;;;;;;7.90;6.28;;;;;;;;;;4873842;29;20060;-72
2022/07/01 04:47:10;;;;;;;9.05;6.95;;;;;;;;;;4874126;29;20527;-72
2022/07/01 04:49:40;;;;;;;9.07;7.05;;;;;;;;;;4874185;29;20420;-72
2022/07/01 04:52:10;;;;;;;10.32;6.93;;;;;;;;;;4873556;29;20056;-72
2022/07/01 04:54:42;;;;;;;9.23;7.00;;;;;;;;;;4873948;29;20045;-72
2022/07/01 04:57:12;;;;;;;8.38;7.53;;;;;;;;;;4874032;29;20053;-72
2022/07/01 04:59:42;;;;;;;8.73;7.32;;;;;;;;;;4872503;29;20175;-72
2022/07/01 05:02:11;;;;;;;10.60;6.70;;;;;;;;;;4873665;29;20053;-72
2022/07/01 05:04:41;;;;;;;9.57;6.13;;;;;;;;;;4873424;29;20159;-72
2022/07/01 05:07:27;;;;;;;9.15;5.38;;;;;;;;;;4873936;29;20058;-73
2022/07/01 05:10:01;;;;;;;7.05;6.28;;;;;;;;;;4874133;29;20060;-72
2022/07/01 05:12:31;;;;;;;9.43;6.45;;;;;;;;;;4873897;29;20056;-72
2022/07/01 05:15:01;;;;;;;8.15;5.95;;;;;;;;;;4873614;29;20049;-71
2022/07/01 05:23:07;;;;;;;5.78;5.13;;;;;;;;;;4873875;29;20512;-71
2022/07/01 05:25:37;;;;;;;6.97;5.82;;;;;;;;;;4873646;29;20057;-72
2022/07/01 05:28:06;;;;;;;7.72;5.43;;;;;;;;;;4873484;29;20049;-71
2022/07/01 05:30:36;;;;;;;6.70;5.00;;;;;;;;;;4873220;29;20049;-72
2022/07/01 05:33:06;;;;;;;7.43;6.07;;;;;;;;;;4873157;29;20045;-72
2022/07/01 05:35:36;;;;;;;11.48;6.22;;;;;;;;;;4873475;29;20052;-71
2022/07/01 05:38:07;;;;;;;;;;;;;;;;;;4873461;29;20049;-72
2022/07/01 05:40:37;;;;;;;6.75;5.68;;;;;;;;;;4873386;29;19930;-72
2022/07/01 05:43:07;;;;;;;8.55;5.93;;;;;;;;;;4873754;29;20489;-70
2022/07/01 05:45:37;;;;;;;6.55;5.47;;;;;;;;;;4872653;29;20056;-71
2022/07/01 05:48:06;;;;;;;7.03;5.90;;;;;;;;;;4873173;29;20045;-72
2022/07/01 05:50:36;;;;;;;9.15;5.45;;;;;;;;;;4872886;29;20076;-72
2022/07/01 05:53:06;;;;;;;8.57;6.20;;;;;;;;;;4872849;29;20059;-71
2022/07/01 05:55:36;;;;;;;9.77;5.80;;;;;;;;;;4873174;29;20064;-71
2022/07/01 05:58:09;;;;;;;6.35;5.13;;;;;;;;;;4871872;29;20088;-72
2022/07/01 06:00:43;;;;;;;8.40;5.93;;;;;;;;;;4873081;29;20049;-72
2022/07/01 06:03:15;;;;;;;5.85;4.97;;;;;;;;;;4873040;29;20421;-72
2022/07/01 06:05:46;;;;;;;5.88;4.78;;;;;;;;;;4873059;29;20072;-71
2022/07/01 06:08:16;;;;;;;6.97;5.50;;;;;;;;;;4872900;29;20060;-71
2022/07/01 06:10:46;;;;;;;5.85;4.38;;;;;;;;;;4873285;29;20048;-72
2022/07/01 06:13:16;;;;;;;6.15;5.50;;;;;;;;;;4872767;29;20049;-72
2022/07/01 06:15:46;;;;;;;8.50;5.07;;;;;;;;;;4872649;29;20057;-72
2022/07/01 06:18:16;;;;;;;6.88;5.50;;;;;;;;;;4872642;29;20053;-71
2022/07/01 06:20:46;;;;;;;6.45;5.85;;;;;;;;;;4873245;29;20076;-72
2022/07/01 06:23:16;;;;;;;7.78;4.95;;;;;;;;;;4873089;29;20393;-72
2022/07/01 06:25:46;;;;;;;8.38;5.68;;;;;;;;;;4872552;29;20417;-73
2022/07/01 06:28:16;;;;;;;5.50;4.75;;;;;;;;;;4873840;29;20068;-72
2022/07/01 06:30:46;;;;;;;7.07;4.65;;;;;;;;;;4876605;29;20052;-71
2022/07/01 06:33:16;;;;;;;9.05;4.97;;;;;;;;;;4876371;29;20057;-71
2022/07/01 06:35:46;;;;;;;8.05;5.00;;;;;;;;;;4876281;29;20052;-71
2022/07/01 06:38:15;;;;;;;7.07;5.60;;;;;;;;;;4875805;29;20049;-72
2022/07/01 06:41:26;;;;;;;7.35;5.50;;;;;;;;;;4875658;29;20400;-72
2022/07/01 06:43:36;;;;;;;7.32;5.35;;;;;;;;;;4876478;29;20041;-71
2022/07/01 06:46:06;;;;;;;9.73;5.20;;;;;;;;;;4876009;29;20085;-71
2022/07/01 06:48:36;;;;;;;5.72;4.32;;;;;;;;;;4876158;29;20060;-72
2022/07/01 06:51:06;;;;;;;6.63;5.28;;;;;;;;;;4875927;29;20516;-72
2022/07/01 06:53:36;;;;;;;7.32;4.97;;;;;;;;;;4876241;29;20057;-72
2022/07/01 06:56:06;;;;;;;8.35;5.70;;;;;;;;;;4875994;29;20057;-72
2022/07/01 06:58:37;;;;;;;7.68;5.50;;;;;;;;;;4875894;29;20440;-72
2022/07/01 07:01:07;;;;;;;6.93;6.05;;;;;;;;;;4876112;29;20520;-72
2022/07/01 07:03:38;;;;;;;6.43;5.25;;;;;;;;;;4875594;29;20052;-72
2022/07/01 07:06:08;;;;;;;6.70;5.97;;;;;;;;;;4876081;29;20519;-72
2022/07/01 07:08:38;;;;;;;7.68;6.22;;;;;;;;;;4876397;29;20049;-72
2022/07/01 07:11:11;;;;;;;9.20;6.53;;;;;;;;;;4875377;29;20412;-71
2022/07/01 07:13:43;;;;;;;5.75;5.15;;;;;;;;;;4875835;29;20053;-72
2022/07/01 07:16:12;;;;;;;;;;;;;;;;;;4875725;29;20057;-73
2022/07/01 07:18:42;;;;;;;6.75;5.82;;;;;;;;;;4875977;29;19932;-73
2022/07/01 07:21:12;;;;;;;8.60;5.55;;;;;;;;;;4876437;29;20052;-72
2022/07/01 07:23:42;;;;;;;8.40;5.75;;;;;;;;;;4875516;29;20413;-72
2022/07/01 07:26:13;;;;;;;7.97;6.50;;;;;;;;;;4875362;29;20056;-72
2022/07/01 07:28:43;;;;;;;8.35;6.32;;;;;;;;;;4875213;29;20045;-72
2022/07/01 07:31:13;;;;;;;10.90;5.85;;;;;;;;;;4875251;29;20810;-72
2022/07/01 07:33:42;;;;;;;9.27;6.15;;;;;;;;;;4874027;29;20064;-73
2022/07/01 07:36:12;;;;;;;7.75;6.22;;;;;;;;;;4875565;29;20532;-72
2022/07/01 07:38:42;;;;;;;7.22;6.32;;;;;;;;;;4874878;29;20049;-71
2022/07/01 07:41:12;;;;;;;8.52;6.07;;;;;;;;;;4874980;29;20057;-72
2022/07/01 07:43:42;;;;;;;9.45;7.20;;;;;;;;;;4875677;29;20053;-72
2022/07/01 07:46:12;;;;;;;8.45;6.32;;;;;;;;;;4874905;29;20065;-72
2022/07/01 07:48:43;;;;;;;9.05;6.88;;;;;;;;;;4875532;29;20049;-70
2022/07/01 07:51:16;;;;;;;12.90;7.53;;;;;;;;;;4874971;29;20057;-72
2022/07/01 07:53:54;;;;;;;8.52;6.20;;;;;;;;;;4874967;29;20057;-72
2022/07/01 07:56:23;;;;;;;10.25;7.60;;;;;;;;;;4873384;29;20068;-72
2022/07/01 07:58:53;;;;;;;7.25;5.95;;;;;;;;;;4874830;29;20068;-72
2022/07/01 08:01:23;;;;;;;7.85;6.85;;;;;;;;;;4873281;29;20057;-72
2022/07/01 08:03:53;;;;;;;11.52;6.95;;;;;;;;;;4874564;29;20527;-73
2022/07/01 08:06:23;;;;;;;12.05;7.90;;;;;;;;;;4875256;29;20044;-72
2022/07/01 08:08:53;;;;;;;9.40;6.85;;;;;;;;;;4874602;29;20816;-72
2022/07/01 08:11:23;;;;;;;8.43;6.55;;;;;;;;;;4874513;29;20422;-72
2022/07/01 08:13:52;;;;;;;12.48;7.28;;;;;;;;;;4874561;29;20052;-71
2022/07/01 08:16:22;;;;;;;11.65;6.95;;;;;;;;;;4873578;29;20057;-72
2022/07/01 08:18:52;;;;;;;9.77;5.03;;;;;;;;;;4873756;29;20049;-71
2022/07/01 08:21:22;;;;;;;9.57;5.43;;;;;;;;;;4874379;29;20437;-72
2022/07/01 08:23:52;;;;;;;22.55;5.55;;;;;;;;;;4874558;29;20489;-73
2022/07/01 08:26:22;;;;;;;8.07;5.47;;;;;;;;;;4873409;29;20492;-73
2022/07/01 08:28:51;;;;;;;5.97;5.00;;;;;;;;;;4873322;29;20544;-73
2022/07/01 08:31:21;;;;;;;5.32;4.40;;;;;;;;;;4874726;29;20057;-71
2022/07/01 08:33:53;;;;;;;5.72;4.90;;;;;;;;;;4874459;29;20437;-72
2022/07/01 08:36:24;;;;;;;5.82;5.13;;;;;;;;;;4874214;29;20052;-72
2022/07/01 08:38:53;;;;;;;6.95;4.95;;;;;;;;;;4874099;29;20060;-72
2022/07/01 08:41:23;;;;;;;6.80;4.88;;;;;;;;;;4873801;29;20061;-72
2022/07/01 08:43:53;;;;;;;8.73;5.70;;;;;;;;;;4874249;29;20076;-72
2022/07/01 08:46:23;;;;;;;9.18;6.15;;;;;;;;;;4874482;29;20236;-73
2022/07/01 08:48:54;;;;;;;8.63;5.93;;;;;;;;;;4874156;29;20060;-72
2022/07/01 08:51:23;;;;;;;6.35;5.22;;;;;;;;;;4872864;29;20080;-72
2022/07/01 08:53:54;;;;;;;6.88;5.35;;;;;;;;;;4874316;29;20053;-71
2022/07/01 08:56:42;;;;;;;14.52;5.57;;;;;;;;;;4873288;29;20057;-72
2022/07/01 08:59:21;;;;;;;9.90;5.63;;;;;;;;;;4872539;29;20461;-72
2022/07/01 09:02:03;;;;;;;6.50;5.43;;;;;;;;;;4872506;29;20052;-72
2022/07/01 09:04:34;;;;;;;17.00;4.90;;;;;;;;;;4873778;29;20048;-73
2022/07/01 09:07:09;;;;;;;5.80;5.20;;;;;;;;;;4873865;29;20057;-72
2022/07/01 09:09:42;;;;;;;6.57;5.25;;;;;;;;;;4873627;29;20072;-73
2022/07/01 09:12:12;;;;;;;4.50;4.00;;;;;;;;;;4873995;29;20052;-72
2022/07/01 09:14:42;;;;;;;11.18;4.78;;;;;;;;;;4873949;29;20160;-72
2022/07/01 09:17:20;;;;;;;5.28;4.28;;;;;;;;;;4873559;29;20493;-72
2022/07/01 09:19:50;;;;;;;5.63;4.53;;;;;;;;;;4873469;29;20057;-72
2022/07/01 09:22:20;;;;;;;7.93;5.40;;;;;;;;;;4873387;29;20078;-72
2022/07/01 09:24:52;;;;;;;8.32;5.47;;;;;;;;;;4873762;29;20057;-72
2022/07/01 09:27:26;;;;;;;9.63;5.53;;;;;;;;;;4872272;29;20056;-72
2022/07/01 09:29:56;;;;;;;12.57;5.50;;;;;;;;;;4873184;29;20052;-72
2022/07/01 09:32:26;;;;;;;8.23;5.30;;;;;;;;;;4873534;29;20053;-72
2022/07/01 09:34:56;;;;;;;7.88;5.43;;;;;;;;;;4873253;29;20057;-72
2022/07/01 09:37:26;;;;;;;6.75;5.35;;;;;;;;;;4873302;29;20804;-71
2022/07/01 09:39:58;;;;;;;7.15;5.25;;;;;;;;;;4873899;29;20048;-72
2022/07/01 09:42:28;;;;;;;6.28;5.38;;;;;;;;;;4873533;29;20053;-72
2022/07/01 09:45:05;;;;;;;9.63;5.15;;;;;;;;;;4873243;29;20163;-72
2022/07/01 09:47:39;;;;;;;6.70;5.20;;;;;;;;;;4873195;29;20048;-72
2022/07/01 09:50:10;;;;;;;13.40;5.53;;;;;;;;;;4871463;29;20041;-73
2022/07/01 09:52:39;;;;;;;7.88;4.43;;;;;;;;;;4873050;29;20060;-74
2022/07/01 09:55:10;;;;;;;5.70;4.97;;;;;;;;;;4873136;29;20056;-72
2022/07/01 09:57:41;;;;;;;6.70;5.00;;;;;;;;;;4871979;29;20057;-73
2022/07/01 10:00:12;;;;;;;6.65;4.60;;;;;;;;;;4872710;29;20077;-71
2022/07/01 10:02:42;;;;;;;7.28;4.43;;;;;;;;;;4873571;29;20064;-72
2022/07/01 10:05:23;;;;;;;6.07;4.72;;;;;;;;;;4876724;29;20053;-74
2022/07/01 10:08:11;;;;;;;11.98;4.97;;;;;;;;;;4876923;29;20446;-73
2022/07/01 10:10:51;;;;;;;9.95;4.40;;;;;;;;;;4877019;29;20041;-73
2022/07/01 10:13:26;;;;;;;4.72;3.60;;;;;;;;;;4876900;29;20056;-73
2022/07/01 10:15:57;;;;;;;5.85;4.03;;;;;;;;;;4876972;29;20053;-73
2022/07/01 10:18:28;;;;;;;5.95;3.92;;;;;;;;;;4876700;29;20059;-73
2022/07/01 10:20:59;;;;;;;7.20;5.72;;;;;;;;;;4876400;29;20064;-74
2022/07/01 10:23:38;;;;;;;20.23;6.53;;;;;;;;;;4876128;29;20057;-76
2022/07/01 10:26:10;;;;;;;9.70;7.22;;;;;;;;;;4876493;29;20516;-73
2022/07/01 10:28:46;;;;;;;5.82;4.85;;;;;;;;;;4876463;29;20068;-74
2022/07/01 10:31:18;;;;;;;10.77;7.03;;;;;;;;;;4876401;29;20049;-73
2022/07/01 10:33:55;;;;;;;10.98;6.15;;;;;;;;;;4874342;29;20056;-73
2022/07/01 10:36:29;;;;;;;13.30;6.07;;;;;;;;;;4875845;29;20048;-73
2022/07/01 10:39:09;;;;;;;9.32;5.97;;;;;;;;;;4874901;29;20068;-72
2022/07/01 10:41:41;;;;;;;22.02;7.15;;;;;;;;;;4876451;29;20067;-73
2022/07/01 10:44:15;;;;;;;12.85;6.93;;;;;;;;;;4875939;29;20056;-71
2022/07/01 10:47:01;;;;;;;19.45;9.98;;;;;;;;;;4876536;29;20051;-76
2022/07/01 10:49:38;;;;;;;10.48;5.97;;;;;;;;;;4876247;29;20432;-74
2022/07/01 10:52:11;;;;;;;16.40;6.60;;;;;;;;;;4876225;29;20056;-73
2022/07/01 10:54:45;;;;;;;21.67;8.25;;;;;;;;;;4876116;29;20056;-73
2022/07/01 10:59:53;;;;;;;12.55;6.03;;;;;;;;;;4875680;29;20045;-72
2022/07/01 11:02:23;;;;;;;12.13;7.07;;;;;;;;;;4876360;29;20048;-72
2022/07/01 11:05:12;;;;;;;8.40;6.72;;;;;;;;;;4876494;29;20052;-74
2022/07/01 11:07:45;;;;;;;13.80;6.82;;;;;;;;;;4875901;29;20057;-72
2022/07/01 11:10:18;;;;;;;12.95;6.47;;;;;;;;;;4875792;29;20061;-73
2022/07/01 11:12:49;;;;;;;12.73;7.60;;;;;;;;;;4875215;29;20064;-73
2022/07/01 11:15:22;;;;;;;;;;;;;;;;;;4875699;29;20519;-72
2022/07/01 11:17:56;;;;;;;20.85;8.40;;;;;;;;;;4876082;29;19943;-73
2022/07/01 11:20:29;;;;;;;6.97;4.90;;;;;;;;;;4875814;29;20501;-73
2022/07/01 11:23:00;;;;;;;15.65;6.00;;;;;;;;;;4875458;29;20053;-72
2022/07/01 11:25:31;;;;;;;5.15;4.68;;;;;;;;;;4875172;29;20055;-74
2022/07/01 11:28:01;;;;;;;17.60;5.45;;;;;;;;;;4874685;29;20409;-73
2022/07/01 11:30:31;;;;;;;9.40;4.80;;;;;;;;;;4871544;29;20448;-73
2022/07/01 11:33:01;;;;;;;11.48;5.13;;;;;;;;;;4874057;29;20040;-73
2022/07/01 11:41:21;;;;;;;6.50;4.45;;;;;;;;;;4874994;29;20072;-77
2022/07/01 11:43:52;;;;;;;15.70;4.45;;;;;;;;;;4874339;29;20056;-73
2022/07/01 11:46:23;;;;;;;7.93;4.18;;;;;;;;;;4874144;29;20072;-73
2022/07/01 11:48:54;;;;;;;;;;;;;;;;;;4875065;29;20510;-73
2022/07/01 11:51:30;;;;;;;6.60;4.18;;;;;;;;;;4874949;29;19927;-74
2022/07/01 11:54:00;;;;;;;13.65;8.68;;;;;;;;;;4874829;29;20389;-73
2022/07/01 11:56:38;;;;;;;5.55;3.90;;;;;;;;;;4874774;29;20067;-72
2022/07/01 11:59:08;;;;;;;47.05;7.47;;;;;;;;;;4874912;29;20045;-72
2022/07/01 12:01:39;;;;;;;8.95;4.40;;;;;;;;;;4874725;29;20053;-72
2022/07/01 12:04:10;;;;;;;19.25;4.30;;;;;;;;;;4873622;29;20060;-74
2022/07/01 12:06:42;;;;;;;11.15;4.63;;;;;;;;;;4874455;29;20044;-76
2022/07/01 12:09:17;;;;;;;23.55;4.65;;;;;;;;;;4874974;29;20055;-76
2022/07/01 12:11:50;;;;;;;4.65;3.58;;;;;;;;;;4874064;29;20053;-77
2022/07/01 12:14:27;;;;;;;5.03;3.50;;;;;;;;;;4874624;29;20045;-73
2022/07/01 12:16:59;;;;;;;13.38;4.00;;;;;;;;;;4874543;29;20064;-76
2022/07/01 12:19:41;;;;;;;14.02;4.30;;;;;;;;;;4874390;29;20517;-75
2022/07/01 12:22:12;;;;;;;;;;;;;;;;;;4874191;29;20045;-72
2022/07/01 12:24:43;;;;;;;13.90;4.28;;;;;;;;;;4873880;29;20299;-73
2022/07/01 12:27:13;;;;;;;11.18;4.10;;;;;;;;;;4873465;29;20048;-74
2022/07/01 12:29:44;;;;;;;8.20;3.83;;;;;;;;;;4874043;29;20531;-75
2022/07/01 12:32:23;;;;;;;4.95;3.53;;;;;;;;;;4874129;29;20512;-74
2022/07/01 12:34:56;;;;;;;7.90;3.75;;;;;;;;;;4873841;29;20049;-76
2022/07/01 12:37:34;;;;;;;4.88;3.70;;;;;;;;;;4872894;29;21107;-75
2022/07/01 12:40:20;;;;;;;5.30;3.60;;;;;;;;;;4874359;29;20053;-75
2022/07/01 12:42:51;;;;;;;6.03;3.45;;;;;;;;;;4873664;29;20049;-75
2022/07/01 12:45:25;;;;;;;7.93;3.90;;;;;;;;;;4872548;29;20060;-73
2022/07/01 12:47:57;;;;;;;18.70;4.13;;;;;;;;;;4874407;29;20057;-78
2022/07/01 12:50:28;;;;;;;5.40;3.40;;;;;;;;;;4873069;29;20064;-76
2022/07/01 12:52:59;;;;;;;;;;;;;;;;;;4874077;29;20079;-72
2022/07/01 12:55:35;;;;;;;7.68;3.10;;;;;;;;;;4873508;29;19934;-76
2022/07/01 12:58:10;;;;;;;21.08;5.30;;;;;;;;;;4873489;29;20037;-74
2022/07/01 13:00:42;;;;;;;6.28;3.35;;;;;;;;;;4873743;29;20413;-73
2022/07/01 13:03:13;;;;;;;16.25;3.25;;;;;;;;;;4873758;29;20076;-73
2022/07/01 13:05:44;;;;;;;7.68;4.07;;;;;;;;;;4873726;29;20540;-76
2022/07/01 13:08:13;;;;;;;3.13;2.67;;;;;;;;;;4873629;29;20064;-73
2022/07/01 13:10:45;;;;;;;8.18;3.53;;;;;;;;;;4874014;29;20528;-77
2022/07/01 13:13:19;;;;;;;6.65;3.05;;;;;;;;;;4873709;29;20049;-74
2022/07/01 13:15:49;;;;;;;16.67;3.92;;;;;;;;;;4873881;29;20501;-76
2022/07/01 13:18:19;;;;;;;4.53;2.53;;;;;;;;;;4873149;29;20064;-72
2022/07/01 13:20:49;;;;;;;9.52;2.25;;;;;;;;;;4873356;29;20572;-73
2022/07/01 13:23:19;;;;;;;10.27;3.65;;;;;;;;;;4874023;29;20072;-74
2022/07/01 13:25:49;;;;;;;7.68;2.30;;;;;;;;;;4873324;29;20076;-77
2022/07/01 13:28:19;;;;;;;6.82;2.50;;;;;;;;;;4873277;29;20060;-78
2022/07/01 13:30:48;;;;;;;2.92;2.38;;;;;;;;;;4873242;29;20057;-74
2022/07/01 13:33:18;;;;;;;6.25;2.28;;;;;;;;;;4872154;29;20137;-72
2022/07/01 13:35:48;;;;;;;10.80;2.50;;;;;;;;;;4873852;29;20049;-76
2022/07/01 13:38:18;;;;;;;17.17;3.08;;;;;;;;;;4873155;29;20819;-73
2022/07/01 13:40:48;;;;;;;7.22;2.78;;;;;;;;;;4872961;29;20052;-75
2022/07/01 13:43:19;;;;;;;5.65;2.47;;;;;;;;;;4872833;29;20045;-75
2022/07/01 13:45:49;;;;;;;3.28;2.33;;;;;;;;;;4873116;29;20076;-74
2022/07/01 13:48:19;;;;;;;5.78;2.70;;;;;;;;;;4872806;29;20053;-73
2022/07/01 13:50:48;;;;;;;7.90;2.38;;;;;;;;;;4873275;29;20056;-73
2022/07/01 13:53:18;;;;;;;15.35;5.03;;;;;;;;;;4873470;29;20429;-74
2022/07/01 13:55:48;;;;;;;4.05;2.30;;;;;;;;;;4871250;29;20060;-73
2022/07/01 13:58:18;;;;;;;9.65;2.65;;;;;;;;;;4873158;29;20049;-75
2022/07/01 14:00:48;;;;;;;5.15;2.88;;;;;;;;;;4872254;29;20084;-72
2022/07/01 14:03:18;;;;;;;6.45;2.20;;;;;;;;;;4872747;29;20056;-73
2022/07/01 14:05:47;;;;;;;2.58;1.80;;;;;;;;;;4872298;29;20052;-74
2022/07/01 14:08:18;;;;;;;20.60;3.08;;;;;;;;;;4872805;29;20516;-74
2022/07/01 14:10:49;;;;;;;5.53;2.13;;;;;;;;;;4873052;29;20385;-73
2022/07/01 14:13:23;;;;;;;8.40;2.22;;;;;;;;;;4873115;29;20048;-73
2022/07/01 14:15:53;;;;;;;4.05;2.00;;;;;;;;;;4873296;29;20494;-73
2022/07/01 14:18:23;;;;;;;36.85;5.05;;;;;;;;;;4873150;29;20622;-72
2022/07/01 14:20:53;;;;;;;10.07;2.92;;;;;;;;;;4873001;29;20405;-77
2022/07/01 14:23:23;;;;;;;3.92;1.90;;;;;;;;;;4871917;29;20053;-73
2022/07/01 14:25:57;;;;;;;6.22;1.98;;;;;;;;;;4873040;29;20057;-77
2022/07/01 14:28:27;;;;;;;3.65;2.08;;;;;;;;;;4872769;29;20424;-74
2022/07/01 14:30:56;;;;;;;4.03;2.33;;;;;;;;;;4879783;29;20068;-72
2022/07/01 14:33:27;;;;;;;9.15;2.92;;;;;;;;;;4885577;29;20512;-73
2022/07/01 14:35:56;;;;;;;3.40;1.95;;;;;;;;;;4874480;29;20094;-73
2022/07/01 14:38:26;;;;;;;2.67;1.60;;;;;;;;;;4872677;29;20056;-72
2022/07/01 14:40:56;;;;;;;31.30;5.45;;;;;;;;;;4872567;29;20049;-74
2022/07/01 14:43:26;;;;;;;4.38;2.38;;;;;;;;;;4873486;29;20056;-72
2022/07/01 14:45:56;;;;;;;2.60;2.10;;;;;;;;;;4871496;29;20084;-77
2022/07/01 14:48:26;;;;;;;6.70;2.08;;;;;;;;;;4872610;29;20052;-73
2022/07/01 14:50:57;;;;;;;2.13;1.80;;;;;;;;;;4876168;29;20049;-74
2022/07/01 14:53:27;;;;;;;2.87;1.60;;;;;;;;;;4875671;29;20064;-74
2022/07/01 14:55:57;;;;;;;7.60;2.03;;;;;;;;;;4875613;29;20057;-76
2022/07/01 14:58:27;;;;;;;6.95;2.00;;;;;;;;;;4875585;29;20064;-74
2022/07/01 15:00:57;;;;;;;3.33;2.08;;;;;;;;;;4875548;29;20061;-76
2022/07/01 15:03:27;;;;;;;5.45;1.95;;;;;;;;;;4875819;29;20163;-76
2022/07/01 15:05:56;;;;;;;5.13;1.88;;;;;;;;;;4876432;29;20646;-74
2022/07/01 15:08:26;;;;;;;6.72;2.08;;;;;;;;;;4876188;29;20049;-73
2022/07/01 15:11:02;;;;;;;19.85;2.72;;;;;;;;;;4875702;29;20049;-74
2022/07/01 15:13:35;;;;;;;7.63;2.10;;;;;;;;;;4875744;29;20060;-74
2022/07/01 15:16:05;;;;;;;6.32;2.08;;;;;;;;;;4873953;29;20429;-73
2022/07/01 15:18:42;;;;;;;14.02;2.30;;;;;;;;;;4875940;29;20064;-73
2022/07/01 15:21:12;;;;;;;10.02;3.22;;;;;;;;;;4875146;29;20049;-74
2022/07/01 15:23:42;;;;;;;9.68;1.88;;;;;;;;;;4875414;29;20056;-74
2022/07/01 15:26:12;;;;;;;2.22;1.88;;;;;;;;;;4875618;29;20049;-73
2022/07/01 15:28:42;;;;;;;7.63;1.90;;;;;;;;;;4875671;29;20060;-74
2022/07/01 15:31:12;;;;;;;4.82;2.45;;;;;;;;;;4874939;29;20049;-75
2022/07/01 15:34:02;;;;;;;2.77;1.93;;;;;;;;;;4875040;29;20053;-73